sensor_id;sensor_type;location;lat;lon;timestamp;pressure;altitude;pressure_sealevel;temperature;humidity
25420;BME280;13354;48.174;11.566;2023-08-21T00:01:29;96186.53;;;24.85;62.90
25420;BME280;13354;48.174;11.566;2023-08-21T00:03:54;96180.84;;;24.76;62.90
25420;BME280;13354;48.174;11.566;2023-08-21T00:06:20;96181.38;;;24.73;62.71
25420;BME280;13354;48.174;11.566;2023-08-21T00:08:45;96178.69;;;24.68;62.64
25420;BME280;13354;48.174;11.566;2023-08-21T00:11:11;96175.94;;;24.63;62.85
25420;BME280;13354;48.174;11.566;2023-08-21T00:13:36;96177.56;;;24.58;63.05
25420;BME280;13354;48.174;11.566;2023-08-21T00:16:02;96173.50;;;24.51;63.01
25420;BME280;13354;48.174;11.566;2023-08-21T00:18:27;96171.88;;;24.50;63.23
25420;BME280;13354;48.174;11.566;2023-08-21T00:20:53;96170.78;;;24.46;63.58
25420;BME280;13354;48.174;11.566;2023-08-21T00:23:18;96163.44;;;24.41;63.48
25420;BME280;13354;48.174;11.566;2023-08-21T00:25:46;96175.63;;;24.39;63.66
25420;BME280;13354;48.174;11.566;2023-08-21T00:28:12;96174.25;;;24.36;64.10
25420;BME280;13354;48.174;11.566;2023-08-21T00:30:37;96173.75;;;24.39;64.01
25420;BME280;13354;48.174;11.566;2023-08-21T00:33:03;96175.41;;;24.45;63.86
25420;BME280;13354;48.174;11.566;2023-08-21T00:35:28;96175.66;;;24.44;63.97
25420;BME280;13354;48.174;11.566;2023-08-21T00:37:54;96174.28;;;24.41;64.12
25420;BME280;13354;48.174;11.566;2023-08-21T00:40:19;96171.84;;;24.40;64.22
25420;BME280;13354;48.174;11.566;2023-08-21T00:42:44;96173.22;;;24.42;64.40
25420;BME280;13354;48.174;11.566;2023-08-21T00:45:10;96166.69;;;24.38;64.56
25420;BME280;13354;48.174;11.566;2023-08-21T00:47:36;96165.09;;;24.42;64.34
25420;BME280;13354;48.174;11.566;2023-08-21T00:50:02;96161.03;;;24.55;62.96
25420;BME280;13354;48.174;11.566;2023-08-21T00:52:28;96158.91;;;24.67;61.90
25420;BME280;13354;48.174;11.566;2023-08-21T00:54:54;96156.47;;;24.76;60.50
25420;BME280;13354;48.174;11.566;2023-08-21T00:57:20;96159.47;;;24.79;60.90
25420;BME280;13354;48.174;11.566;2023-08-21T00:59:47;96158.34;;;24.70;62.17
25420;BME280;13354;48.174;11.566;2023-08-21T01:02:12;96156.22;;;24.67;62.60
25420;BME280;13354;48.174;11.566;2023-08-21T01:04:38;96163.22;;;24.63;62.84
25420;BME280;13354;48.174;11.566;2023-08-21T01:07:04;96170.28;;;24.64;62.28
25420;BME280;13354;48.174;11.566;2023-08-21T01:09:54;96168.34;;;24.59;62.32
25420;BME280;13354;48.174;11.566;2023-08-21T01:12:30;96171.06;;;24.54;62.90
25420;BME280;13354;48.174;11.566;2023-08-21T01:15:00;96167.53;;;24.59;62.04
25420;BME280;13354;48.174;11.566;2023-08-21T01:17:33;96166.19;;;24.62;61.41
25420;BME280;13354;48.174;11.566;2023-08-21T01:20:00;96167.56;;;24.79;60.52
25420;BME280;13354;48.174;11.566;2023-08-21T01:22:26;96162.41;;;24.78;59.94
25420;BME280;13354;48.174;11.566;2023-08-21T01:24:53;96169.75;;;24.67;61.56
25420;BME280;13354;48.174;11.566;2023-08-21T01:27:19;96171.88;;;24.70;60.56
25420;BME280;13354;48.174;11.566;2023-08-21T01:29:46;96164.59;;;24.66;61.28
25420;BME280;13354;48.174;11.566;2023-08-21T01:32:22;96159.16;;;24.55;62.04
25420;BME280;13354;48.174;11.566;2023-08-21T01:34:50;96164.56;;;24.50;62.98
25420;BME280;13354;48.174;11.566;2023-08-21T01:37:17;96160.50;;;24.43;63.33
25420;BME280;13354;48.174;11.566;2023-08-21T01:39:42;96157.97;;;24.26;63.56
25420;BME280;13354;48.174;11.566;2023-08-21T01:42:07;96168.53;;;24.17;64.11
25420;BME280;13354;48.174;11.566;2023-08-21T01:44:33;96162.28;;;24.11;64.06
25420;BME280;13354;48.174;11.566;2023-08-21T01:46:58;96166.06;;;24.10;64.12
25420;BME280;13354;48.174;11.566;2023-08-21T01:49:23;96167.97;;;24.10;64.14
25420;BME280;13354;48.174;11.566;2023-08-21T01:51:49;96167.44;;;24.13;64.07
25420;BME280;13354;48.174;11.566;2023-08-21T01:54:14;96170.66;;;24.15;64.03
25420;BME280;13354;48.174;11.566;2023-08-21T01:56:39;96165.81;;;24.17;63.89
25420;BME280;13354;48.174;11.566;2023-08-21T01:59:05;96167.19;;;24.20;63.30
25420;BME280;13354;48.174;11.566;2023-08-21T02:01:32;96171.22;;;24.22;63.08
25420;BME280;13354;48.174;11.566;2023-08-21T02:03:57;96167.97;;;24.15;63.75
25420;BME280;13354;48.174;11.566;2023-08-21T02:06:22;96173.94;;;24.17;63.23
25420;BME280;13354;48.174;11.566;2023-08-21T02:08:48;96169.03;;;24.09;64.08
25420;BME280;13354;48.174;11.566;2023-08-21T02:11:13;96168.75;;;24.05;64.23
25420;BME280;13354;48.174;11.566;2023-08-21T02:13:39;96175.78;;;24.06;63.77
25420;BME280;13354;48.174;11.566;2023-08-21T02:16:04;96161.47;;;24.11;63.40
25420;BME280;13354;48.174;11.566;2023-08-21T02:18:29;96173.88;;;24.02;63.71
25420;BME280;13354;48.174;11.566;2023-08-21T02:20:55;96166.31;;;24.04;63.42
25420;BME280;13354;48.174;11.566;2023-08-21T02:23:20;96172.81;;;24.03;63.59
25420;BME280;13354;48.174;11.566;2023-08-21T02:25:46;96165.50;;;23.98;63.90
25420;BME280;13354;48.174;11.566;2023-08-21T02:28:11;96170.63;;;23.95;64.11
25420;BME280;13354;48.174;11.566;2023-08-21T02:30:40;96173.84;;;23.97;63.61
25420;BME280;13354;48.174;11.566;2023-08-21T02:33:05;96175.44;;;23.88;63.83
25420;BME280;13354;48.174;11.566;2023-08-21T02:35:30;96170.56;;;23.79;63.83
25420;BME280;13354;48.174;11.566;2023-08-21T02:37:56;96171.59;;;23.78;63.99
25420;BME280;13354;48.174;11.566;2023-08-21T02:40:21;96166.72;;;23.70;64.12
25420;BME280;13354;48.174;11.566;2023-08-21T02:42:46;96174.28;;;23.68;63.67
25420;BME280;13354;48.174;11.566;2023-08-21T02:45:12;96173.34;;;23.52;64.25
25420;BME280;13354;48.174;11.566;2023-08-21T02:47:38;96174.72;;;23.60;63.90
25420;BME280;13354;48.174;11.566;2023-08-21T02:50:05;96179.28;;;23.49;64.28
25420;BME280;13354;48.174;11.566;2023-08-21T02:52:32;96170.63;;;23.47;64.82
25420;BME280;13354;48.174;11.566;2023-08-21T02:54:57;96174.72;;;23.55;64.11
25420;BME280;13354;48.174;11.566;2023-08-21T02:57:24;96180.63;;;23.52;64.79
25420;BME280;13354;48.174;11.566;2023-08-21T02:59:49;96174.13;;;23.48;65.00
25420;BME280;13354;48.174;11.566;2023-08-21T03:02:15;96184.13;;;23.42;65.44
25420;BME280;13354;48.174;11.566;2023-08-21T03:04:40;96183.56;;;23.45;65.33
25420;BME280;13354;48.174;11.566;2023-08-21T03:07:06;96185.97;;;23.42;65.73
25420;BME280;13354;48.174;11.566;2023-08-21T03:09:31;96185.44;;;23.39;65.30
25420;BME280;13354;48.174;11.566;2023-08-21T03:11:56;96182.22;;;23.43;65.31
25420;BME280;13354;48.174;11.566;2023-08-21T03:14:21;96186.25;;;23.40;65.24
25420;BME280;13354;48.174;11.566;2023-08-21T03:16:47;96189.44;;;23.32;65.64
25420;BME280;13354;48.174;11.566;2023-08-21T03:19:12;96188.94;;;23.35;65.97
25420;BME280;13354;48.174;11.566;2023-08-21T03:21:37;96194.88;;;23.37;65.96
25420;BME280;13354;48.174;11.566;2023-08-21T03:24:03;96193.78;;;23.33;66.11
25420;BME280;13354;48.174;11.566;2023-08-21T03:26:28;96195.94;;;23.31;66.20
25420;BME280;13354;48.174;11.566;2023-08-21T03:28:54;96199.66;;;23.25;66.47
25420;BME280;13354;48.174;11.566;2023-08-21T03:31:19;96202.06;;;23.21;66.79
25420;BME280;13354;48.174;11.566;2023-08-21T03:33:44;96201.03;;;23.27;66.36
25420;BME280;13354;48.174;11.566;2023-08-21T03:36:10;96197.75;;;23.20;66.92
25420;BME280;13354;48.174;11.566;2023-08-21T03:38:35;96198.25;;;23.17;67.10
25420;BME280;13354;48.174;11.566;2023-08-21T03:41:01;96206.06;;;23.13;67.07
25420;BME280;13354;48.174;11.566;2023-08-21T03:43:27;96201.97;;;23.06;67.11
25420;BME280;13354;48.174;11.566;2023-08-21T03:45:52;96205.97;;;23.03;67.14
25420;BME280;13354;48.174;11.566;2023-08-21T03:48:18;96198.66;;;22.99;67.42
25420;BME280;13354;48.174;11.566;2023-08-21T03:50:43;96199.44;;;22.94;67.86
25420;BME280;13354;48.174;11.566;2023-08-21T03:53:08;96203.66;;;22.90;68.12
25420;BME280;13354;48.174;11.566;2023-08-21T03:55:34;96202.38;;;22.93;67.82
25420;BME280;13354;48.174;11.566;2023-08-21T03:57:59;96210.41;;;22.87;68.30
25420;BME280;13354;48.174;11.566;2023-08-21T04:00:25;96212.38;;;22.92;68.28
25420;BME280;13354;48.174;11.566;2023-08-21T04:02:50;96210.25;;;22.94;68.17
25420;BME280;13354;48.174;11.566;2023-08-21T04:05:15;96211.22;;;22.88;68.30
25420;BME280;13354;48.174;11.566;2023-08-21T04:07:41;96212.03;;;22.88;68.31
25420;BME280;13354;48.174;11.566;2023-08-21T04:10:06;96207.09;;;22.80;68.73
25420;BME280;13354;48.174;11.566;2023-08-21T04:12:32;96212.13;;;22.72;69.01
25420;BME280;13354;48.174;11.566;2023-08-21T04:14:57;96207.59;;;22.72;69.25
25420;BME280;13354;48.174;11.566;2023-08-21T04:17:23;96204.28;;;22.65;69.40
25420;BME280;13354;48.174;11.566;2023-08-21T04:19:49;96205.72;;;22.78;69.10
25420;BME280;13354;48.174;11.566;2023-08-21T04:22:15;96200.38;;;22.56;69.61
25420;BME280;13354;48.174;11.566;2023-08-21T04:24:41;96206.41;;;22.36;70.24
25420;BME280;13354;48.174;11.566;2023-08-21T04:27:06;96202.97;;;22.46;69.96
25420;BME280;13354;48.174;11.566;2023-08-21T04:29:31;96213.78;;;22.46;70.09
25420;BME280;13354;48.174;11.566;2023-08-21T04:31:56;96214.53;;;22.41;70.14
25420;BME280;13354;48.174;11.566;2023-08-21T04:34:22;96208.41;;;22.24;70.80
25420;BME280;13354;48.174;11.566;2023-08-21T04:36:47;96207.72;;;22.33;70.54
25420;BME280;13354;48.174;11.566;2023-08-21T04:39:14;96209.91;;;22.36;70.20
25420;BME280;13354;48.174;11.566;2023-08-21T04:41:41;96211.59;;;22.42;70.23
25420;BME280;13354;48.174;11.566;2023-08-21T04:44:06;96214.50;;;22.36;70.95
25420;BME280;13354;48.174;11.566;2023-08-21T04:46:31;96213.41;;;22.37;71.23
25420;BME280;13354;48.174;11.566;2023-08-21T04:48:57;96225.34;;;22.41;71.09
25420;BME280;13354;48.174;11.566;2023-08-21T04:51:22;96215.34;;;22.41;71.16
25420;BME280;13354;48.174;11.566;2023-08-21T04:53:48;96215.44;;;22.47;70.77
25420;BME280;13354;48.174;11.566;2023-08-21T04:56:13;96223.59;;;22.57;70.30
25420;BME280;13354;48.174;11.566;2023-08-21T04:58:38;96224.78;;;22.66;69.89
25420;BME280;13354;48.174;11.566;2023-08-21T05:01:05;96224.09;;;22.76;69.63
25420;BME280;13354;48.174;11.566;2023-08-21T05:03:30;96216.72;;;22.71;69.76
25420;BME280;13354;48.174;11.566;2023-08-21T05:05:56;96222.22;;;22.81;69.91
25420;BME280;13354;48.174;11.566;2023-08-21T05:08:25;96221.69;;;22.79;70.11
25420;BME280;13354;48.174;11.566;2023-08-21T05:10:55;96218.06;;;22.96;69.18
25420;BME280;13354;48.174;11.566;2023-08-21T05:13:21;96222.38;;;22.97;68.88
25420;BME280;13354;48.174;11.566;2023-08-21T05:15:51;96219.81;;;23.12;68.10
25420;BME280;13354;48.174;11.566;2023-08-21T05:18:17;96227.19;;;23.22;68.39
25420;BME280;13354;48.174;11.566;2023-08-21T05:20:43;96226.63;;;23.20;67.93
25420;BME280;13354;48.174;11.566;2023-08-21T05:23:08;96230.41;;;23.19;68.15
25420;BME280;13354;48.174;11.566;2023-08-21T05:25:33;96229.00;;;23.11;68.22
25420;BME280;13354;48.174;11.566;2023-08-21T05:27:59;96229.63;;;23.23;67.91
25420;BME280;13354;48.174;11.566;2023-08-21T05:30:25;96232.81;;;23.15;68.28
25420;BME280;13354;48.174;11.566;2023-08-21T05:32:50;96227.16;;;23.17;68.11
25420;BME280;13354;48.174;11.566;2023-08-21T05:35:15;96230.47;;;23.24;68.06
25420;BME280;13354;48.174;11.566;2023-08-21T05:37:41;96233.38;;;23.17;68.49
25420;BME280;13354;48.174;11.566;2023-08-21T05:40:06;96235.81;;;23.19;68.56
25420;BME280;13354;48.174;11.566;2023-08-21T05:42:33;96227.41;;;23.15;68.70
25420;BME280;13354;48.174;11.566;2023-08-21T05:44:58;96233.47;;;23.27;68.22
25420;BME280;13354;48.174;11.566;2023-08-21T05:47:23;96236.00;;;23.44;67.71
25420;BME280;13354;48.174;11.566;2023-08-21T05:49:49;96238.50;;;23.56;67.18
25420;BME280;13354;48.174;11.566;2023-08-21T05:52:15;96242.56;;;23.58;67.08
25420;BME280;13354;48.174;11.566;2023-08-21T05:54:40;96245.97;;;23.76;66.65
25420;BME280;13354;48.174;11.566;2023-08-21T05:57:06;96245.16;;;23.75;65.40
25420;BME280;13354;48.174;11.566;2023-08-21T05:59:32;96253.06;;;23.87;65.03
25420;BME280;13354;48.174;11.566;2023-08-21T06:01:58;96246.63;;;23.98;64.43
25420;BME280;13354;48.174;11.566;2023-08-21T06:04:24;96252.19;;;23.81;64.83
25420;BME280;13354;48.174;11.566;2023-08-21T06:06:50;96249.47;;;23.76;64.96
25420;BME280;13354;48.174;11.566;2023-08-21T06:09:15;96247.31;;;23.78;65.17
25420;BME280;13354;48.174;11.566;2023-08-21T06:11:42;96244.03;;;23.71;65.22
25420;BME280;13354;48.174;11.566;2023-08-21T06:14:08;96244.16;;;23.92;64.80
25420;BME280;13354;48.174;11.566;2023-08-21T06:16:33;96249.28;;;23.93;64.13
25420;BME280;13354;48.174;11.566;2023-08-21T06:18:58;96244.22;;;24.07;63.92
25420;BME280;13354;48.174;11.566;2023-08-21T06:21:24;96248.06;;;24.16;63.78
25420;BME280;13354;48.174;11.566;2023-08-21T06:23:49;96259.16;;;24.20;63.57
25420;BME280;13354;48.174;11.566;2023-08-21T06:26:14;96250.34;;;24.40;63.27
25420;BME280;13354;48.174;11.566;2023-08-21T06:28:39;96257.19;;;24.73;62.52
25420;BME280;13354;48.174;11.566;2023-08-21T06:31:05;96250.22;;;25.64;60.19
25420;BME280;13354;48.174;11.566;2023-08-21T06:33:33;96256.41;;;26.70;57.10
25420;BME280;13354;48.174;11.566;2023-08-21T06:35:58;96247.09;;;27.55;54.28
25420;BME280;13354;48.174;11.566;2023-08-21T06:38:24;96247.31;;;28.78;50.83
25420;BME280;13354;48.174;11.566;2023-08-21T06:40:49;96248.66;;;30.12;47.50
25420;BME280;13354;48.174;11.566;2023-08-21T06:43:16;96247.63;;;30.90;45.65
25420;BME280;13354;48.174;11.566;2023-08-21T06:45:42;96243.75;;;31.27;44.97
25420;BME280;13354;48.174;11.566;2023-08-21T06:48:07;96253.13;;;32.11;43.34
25420;BME280;13354;48.174;11.566;2023-08-21T06:50:32;96252.53;;;32.32;42.09
25420;BME280;13354;48.174;11.566;2023-08-21T06:52:58;96249.97;;;33.27;40.66
25420;BME280;13354;48.174;11.566;2023-08-21T06:55:23;96254.63;;;33.61;39.46
25420;BME280;13354;48.174;11.566;2023-08-21T06:57:48;96244.50;;;34.09;38.69
25420;BME280;13354;48.174;11.566;2023-08-21T07:00:14;96249.06;;;34.05;37.60
25420;BME280;13354;48.174;11.566;2023-08-21T07:02:39;96250.44;;;34.28;38.00
25420;BME280;13354;48.174;11.566;2023-08-21T07:05:05;96258.81;;;35.12;36.69
25420;BME280;13354;48.174;11.566;2023-08-21T07:07:30;96256.06;;;35.33;36.59
25420;BME280;13354;48.174;11.566;2023-08-21T07:09:55;96241.47;;;35.87;35.13
25420;BME280;13354;48.174;11.566;2023-08-21T07:12:22;96243.75;;;35.85;35.59
25420;BME280;13354;48.174;11.566;2023-08-21T07:14:47;96249.94;;;35.81;35.33
25420;BME280;13354;48.174;11.566;2023-08-21T07:17:13;96253.00;;;36.13;34.54
25420;BME280;13354;48.174;11.566;2023-08-21T07:19:38;96256.22;;;36.03;35.14
25420;BME280;13354;48.174;11.566;2023-08-21T07:22:04;96260.88;;;35.90;34.98
25420;BME280;13354;48.174;11.566;2023-08-21T07:24:29;96249.34;;;36.09;35.08
25420;BME280;13354;48.174;11.566;2023-08-21T07:26:54;96251.66;;;36.68;33.98
25420;BME280;13354;48.174;11.566;2023-08-21T07:29:20;96249.69;;;36.69;34.04
25420;BME280;13354;48.174;11.566;2023-08-21T07:31:45;96254.72;;;36.18;33.76
25420;BME280;13354;48.174;11.566;2023-08-21T07:34:11;96256.97;;;35.91;34.40
25420;BME280;13354;48.174;11.566;2023-08-21T07:36:36;96259.63;;;35.13;35.71
25420;BME280;13354;48.174;11.566;2023-08-21T07:39:01;96260.13;;;33.35;38.21
25420;BME280;13354;48.174;11.566;2023-08-21T07:41:27;96259.78;;;32.93;39.08
25420;BME280;13354;48.174;11.566;2023-08-21T07:43:52;96255.22;;;31.83;41.06
25420;BME280;13354;48.174;11.566;2023-08-21T07:46:17;96265.38;;;31.15;42.46
25420;BME280;13354;48.174;11.566;2023-08-21T07:48:44;96258.69;;;30.71;42.93
25420;BME280;13354;48.174;11.566;2023-08-21T07:51:10;96262.84;;;30.14;44.16
25420;BME280;13354;48.174;11.566;2023-08-21T07:53:35;96257.97;;;29.50;45.53
25420;BME280;13354;48.174;11.566;2023-08-21T07:56:02;96254.50;;;29.45;46.13
25420;BME280;13354;48.174;11.566;2023-08-21T07:58:29;96258.88;;;29.27;46.81
25420;BME280;13354;48.174;11.566;2023-08-21T08:00:54;96253.81;;;29.53;47.05
25420;BME280;13354;48.174;11.566;2023-08-21T08:03:20;96256.75;;;29.75;46.95
25420;BME280;13354;48.174;11.566;2023-08-21T08:05:45;96267.34;;;30.23;45.71
25420;BME280;13354;48.174;11.566;2023-08-21T08:08:11;96262.56;;;30.56;44.66
25420;BME280;13354;48.174;11.566;2023-08-21T08:10:40;96257.97;;;30.79;44.40
25420;BME280;13354;48.174;11.566;2023-08-21T08:13:06;96263.44;;;31.16;43.88
25420;BME280;13354;48.174;11.566;2023-08-21T08:15:32;96260.53;;;31.57;42.92
25420;BME280;13354;48.174;11.566;2023-08-21T08:17:59;96257.28;;;32.00;42.10
25420;BME280;13354;48.174;11.566;2023-08-21T08:20:24;96257.72;;;32.33;41.98
25420;BME280;13354;48.174;11.566;2023-08-21T08:22:50;96261.38;;;32.68;41.30
25420;BME280;13354;48.174;11.566;2023-08-21T08:25:15;96249.19;;;33.01;40.09
25420;BME280;13354;48.174;11.566;2023-08-21T08:27:42;96258.06;;;33.15;39.92
25420;BME280;13354;48.174;11.566;2023-08-21T08:30:07;96254.19;;;33.16;39.33
25420;BME280;13354;48.174;11.566;2023-08-21T08:32:33;96256.91;;;33.59;38.13
25420;BME280;13354;48.174;11.566;2023-08-21T08:34:59;96253.84;;;33.70;38.13
25420;BME280;13354;48.174;11.566;2023-08-21T08:37:24;96257.88;;;34.19;37.45
25420;BME280;13354;48.174;11.566;2023-08-21T08:39:50;96260.38;;;34.50;36.36
25420;BME280;13354;48.174;11.566;2023-08-21T08:42:15;96255.22;;;34.70;35.84
25420;BME280;13354;48.174;11.566;2023-08-21T08:44:42;96256.50;;;34.93;35.33
25420;BME280;13354;48.174;11.566;2023-08-21T08:47:08;96259.50;;;35.09;35.33
25420;BME280;13354;48.174;11.566;2023-08-21T08:49:35;96253.88;;;35.39;34.12
25420;BME280;13354;48.174;11.566;2023-08-21T08:52:00;96261.66;;;35.24;34.16
25420;BME280;13354;48.174;11.566;2023-08-21T08:54:27;96260.63;;;35.08;34.83
25420;BME280;13354;48.174;11.566;2023-08-21T08:56:53;96257.88;;;35.29;34.57
25420;BME280;13354;48.174;11.566;2023-08-21T08:59:18;96252.69;;;35.48;34.60
25420;BME280;13354;48.174;11.566;2023-08-21T09:01:44;96258.84;;;35.66;34.12
25420;BME280;13354;48.174;11.566;2023-08-21T09:04:10;96256.09;;;35.99;33.44
25420;BME280;13354;48.174;11.566;2023-08-21T09:06:36;96252.88;;;36.34;33.10
25420;BME280;13354;48.174;11.566;2023-08-21T09:09:02;96255.41;;;36.27;31.78
25420;BME280;13354;48.174;11.566;2023-08-21T09:11:27;96250.78;;;36.92;30.99
25420;BME280;13354;48.174;11.566;2023-08-21T09:13:54;96248.09;;;36.68;31.29
25420;BME280;13354;48.174;11.566;2023-08-21T09:16:21;96251.25;;;37.07;31.02
25420;BME280;13354;48.174;11.566;2023-08-21T09:18:51;96246.66;;;37.39;31.06
25420;BME280;13354;48.174;11.566;2023-08-21T09:21:20;96244.19;;;37.78;29.99
25420;BME280;13354;48.174;11.566;2023-08-21T09:23:47;96243.81;;;38.23;28.53
25420;BME280;13354;48.174;11.566;2023-08-21T09:26:20;96240.66;;;38.25;28.72
25420;BME280;13354;48.174;11.566;2023-08-21T09:28:46;96244.44;;;38.48;28.31
25420;BME280;13354;48.174;11.566;2023-08-21T09:31:12;96252.78;;;38.83;27.73
25420;BME280;13354;48.174;11.566;2023-08-21T09:33:37;96249.81;;;38.76;27.76
25420;BME280;13354;48.174;11.566;2023-08-21T09:36:03;96251.28;;;39.05;28.25
25420;BME280;13354;48.174;11.566;2023-08-21T09:38:30;96250.31;;;38.98;27.52
25420;BME280;13354;48.174;11.566;2023-08-21T09:40:56;96248.56;;;38.89;27.54
25420;BME280;13354;48.174;11.566;2023-08-21T09:43:23;96243.00;;;38.54;27.72
25420;BME280;13354;48.174;11.566;2023-08-21T09:45:53;96244.13;;;38.69;28.49
25420;BME280;13354;48.174;11.566;2023-08-21T09:48:25;96240.94;;;38.67;27.71
25420;BME280;13354;48.174;11.566;2023-08-21T09:50:52;96235.63;;;38.78;28.52
25420;BME280;13354;48.174;11.566;2023-08-21T09:53:21;96239.41;;;38.22;28.77
25420;BME280;13354;48.174;11.566;2023-08-21T09:55:49;96238.34;;;38.11;28.98
25420;BME280;13354;48.174;11.566;2023-08-21T09:58:19;96223.06;;;37.69;29.12
25420;BME280;13354;48.174;11.566;2023-08-21T10:00:45;96239.19;;;37.39;29.92
25420;BME280;13354;48.174;11.566;2023-08-21T10:03:13;96236.00;;;37.25;30.28
25420;BME280;13354;48.174;11.566;2023-08-21T10:05:42;96232.41;;;36.96;30.61
25420;BME280;13354;48.174;11.566;2023-08-21T10:08:08;96227.41;;;37.14;29.79
25420;BME280;13354;48.174;11.566;2023-08-21T10:10:36;96230.19;;;37.14;29.63
25420;BME280;13354;48.174;11.566;2023-08-21T10:13:03;96227.22;;;37.07;29.93
25420;BME280;13354;48.174;11.566;2023-08-21T10:15:29;96226.97;;;37.12;29.30
25420;BME280;13354;48.174;11.566;2023-08-21T10:17:55;96222.25;;;37.13;28.38
25420;BME280;13354;48.174;11.566;2023-08-21T10:20:21;96223.66;;;36.94;29.43
25420;BME280;13354;48.174;11.566;2023-08-21T10:22:49;96228.38;;;37.06;29.33
25420;BME280;13354;48.174;11.566;2023-08-21T10:25:24;96223.72;;;36.70;29.62
25420;BME280;13354;48.174;11.566;2023-08-21T10:27:59;96214.25;;;36.95;28.10
25420;BME280;13354;48.174;11.566;2023-08-21T10:30:29;96219.53;;;37.00;28.31
25420;BME280;13354;48.174;11.566;2023-08-21T10:32:57;96222.19;;;36.97;28.53
25420;BME280;13354;48.174;11.566;2023-08-21T10:35:24;96218.88;;;36.67;28.83
25420;BME280;13354;48.174;11.566;2023-08-21T10:38:11;96219.56;;;36.76;28.32
25420;BME280;13354;48.174;11.566;2023-08-21T10:40:41;96217.25;;;36.90;28.10
25420;BME280;13354;48.174;11.566;2023-08-21T10:43:40;96216.44;;;37.02;28.14
25420;BME280;13354;48.174;11.566;2023-08-21T10:46:07;96223.09;;;36.89;29.31
25420;BME280;13354;48.174;11.566;2023-08-21T10:48:33;96216.38;;;37.14;28.40
25420;BME280;13354;48.174;11.566;2023-08-21T10:51:01;96216.53;;;37.06;28.17
25420;BME280;13354;48.174;11.566;2023-08-21T10:53:28;96209.28;;;37.29;28.17
25420;BME280;13354;48.174;11.566;2023-08-21T10:55:54;96215.25;;;37.43;28.36
25420;BME280;13354;48.174;11.566;2023-08-21T10:58:20;96219.38;;;37.50;28.10
25420;BME280;13354;48.174;11.566;2023-08-21T11:00:45;96213.16;;;37.84;28.15
25420;BME280;13354;48.174;11.566;2023-08-21T11:03:10;96216.59;;;37.93;28.04
25420;BME280;13354;48.174;11.566;2023-08-21T11:05:36;96212.50;;;38.35;28.09
25420;BME280;13354;48.174;11.566;2023-08-21T11:08:01;96213.25;;;38.67;26.75
25420;BME280;13354;48.174;11.566;2023-08-21T11:10:30;96222.84;;;38.73;26.88
25420;BME280;13354;48.174;11.566;2023-08-21T11:12:58;96213.78;;;39.08;26.23
25420;BME280;13354;48.174;11.566;2023-08-21T11:15:28;96217.56;;;39.19;25.92
25420;BME280;13354;48.174;11.566;2023-08-21T11:17:59;96226.25;;;39.37;27.77
25420;BME280;13354;48.174;11.566;2023-08-21T11:20:34;96220.72;;;39.37;28.49
25420;BME280;13354;48.174;11.566;2023-08-21T11:23:02;96227.47;;;39.40;27.65
25420;BME280;13354;48.174;11.566;2023-08-21T11:25:30;96228.13;;;39.52;26.61
25420;BME280;13354;48.174;11.566;2023-08-21T11:27:56;96229.59;;;39.27;27.96
25420;BME280;13354;48.174;11.566;2023-08-21T11:30:22;96216.94;;;39.26;28.00
25420;BME280;13354;48.174;11.566;2023-08-21T11:32:49;96221.13;;;39.39;27.53
25420;BME280;13354;48.174;11.566;2023-08-21T11:35:15;96209.63;;;39.37;26.71
25420;BME280;13354;48.174;11.566;2023-08-21T11:37:44;96211.22;;;39.19;27.22
25420;BME280;13354;48.174;11.566;2023-08-21T11:40:12;96216.88;;;38.87;28.54
25420;BME280;13354;48.174;11.566;2023-08-21T11:42:38;96217.63;;;39.03;28.01
25420;BME280;13354;48.174;11.566;2023-08-21T11:45:04;96211.03;;;38.92;28.11
25420;BME280;13354;48.174;11.566;2023-08-21T11:47:34;96219.44;;;38.60;28.86
25420;BME280;13354;48.174;11.566;2023-08-21T11:50:04;96208.16;;;38.85;28.49
25420;BME280;13354;48.174;11.566;2023-08-21T11:52:30;96203.53;;;38.57;29.32
25420;BME280;13354;48.174;11.566;2023-08-21T11:54:57;96201.00;;;38.68;29.77
25420;BME280;13354;48.174;11.566;2023-08-21T11:57:23;96204.88;;;38.63;29.41
25420;BME280;13354;48.174;11.566;2023-08-21T11:59:55;96206.94;;;38.51;29.17
25420;BME280;13354;48.174;11.566;2023-08-21T12:02:28;96205.09;;;38.39;29.64
25420;BME280;13354;48.174;11.566;2023-08-21T12:05:00;96196.66;;;38.67;28.49
25420;BME280;13354;48.174;11.566;2023-08-21T12:07:26;96205.91;;;38.75;28.17
25420;BME280;13354;48.174;11.566;2023-08-21T12:09:51;96203.34;;;38.82;27.69
25420;BME280;13354;48.174;11.566;2023-08-21T12:12:17;96197.28;;;38.96;28.01
25420;BME280;13354;48.174;11.566;2023-08-21T12:14:42;96190.28;;;39.21;28.25
25420;BME280;13354;48.174;11.566;2023-08-21T12:17:08;96183.09;;;39.36;26.60
25420;BME280;13354;48.174;11.566;2023-08-21T12:19:34;96192.16;;;39.33;26.97
25420;BME280;13354;48.174;11.566;2023-08-21T12:21:59;96181.19;;;39.40;27.17
25420;BME280;13354;48.174;11.566;2023-08-21T12:24:25;96186.84;;;39.67;26.60
25420;BME280;13354;48.174;11.566;2023-08-21T12:26:50;96181.59;;;39.61;27.16
25420;BME280;13354;48.174;11.566;2023-08-21T12:29:15;96179.72;;;39.89;26.49
25420;BME280;13354;48.174;11.566;2023-08-21T12:31:41;96180.13;;;39.91;26.36
25420;BME280;13354;48.174;11.566;2023-08-21T12:34:06;96181.78;;;39.95;26.11
25420;BME280;13354;48.174;11.566;2023-08-21T12:36:37;96172.75;;;40.21;25.79
25420;BME280;13354;48.174;11.566;2023-08-21T12:39:03;96170.38;;;39.74;27.31
25420;BME280;13354;48.174;11.566;2023-08-21T12:41:29;96166.41;;;39.75;26.97
25420;BME280;13354;48.174;11.566;2023-08-21T12:43:55;96167.06;;;39.91;26.81
25420;BME280;13354;48.174;11.566;2023-08-21T12:46:21;96163.50;;;39.91;26.96